Time;durP1;ratioP1;P1;durP2;ratioP2;P2;SDS_P1;SDS_P2;PMS_P1;PMS_P2;Temp;Humidity;BMP_temperature;BMP_pressure;BME280_temperature;BME280_humidity;BME280_pressure;Samples;Min_cycle;Max_cycle;Signal;HPM_P1;HPM_P2
2022/03/03 00:02:09;;;;;;;8.60;1.70;;;11.30;94.40;;;;;;5057706;28;20025;-45
2022/03/03 00:04:35;;;;;;;11.00;1.88;;;11.30;94.90;;;;;;5057939;28;20103;-47
2022/03/03 00:07:01;;;;;;;11.05;2.05;;;11.30;94.90;;;;;;5057708;28;20051;-46
2022/03/03 00:09:27;;;;;;;11.75;2.17;;;11.30;94.90;;;;;;5057661;28;20029;-47
2022/03/03 00:11:52;;;;;;;7.68;2.22;;;11.30;95.30;;;;;;5057587;28;20048;-45
2022/03/03 00:14:18;;;;;;;6.57;1.88;;;11.30;95.20;;;;;;5058064;28;20424;-45
2022/03/03 00:16:44;;;;;;;13.02;2.35;;;11.20;95.10;;;;;;5057510;28;20021;-48
2022/03/03 00:19:10;;;;;;;8.63;2.25;;;11.20;94.90;;;;;;5057398;28;20096;-45
2022/03/03 00:21:36;;;;;;;12.35;2.13;;;11.30;94.90;;;;;;5057248;28;20017;-45
2022/03/03 00:24:01;;;;;;;9.00;2.13;;;11.30;95.20;;;;;;5057965;28;20362;-46
2022/03/03 00:26:29;;;;;;;12.57;2.40;;;11.20;94.90;;;;;;5057651;28;20069;-46
2022/03/03 00:28:54;;;;;;;12.13;2.10;;;11.30;95.40;;;;;;5057484;28;20504;-45
2022/03/03 00:31:20;;;;;;;9.80;1.67;;;11.20;95.30;;;;;;5057356;28;20423;-45
2022/03/03 00:33:46;;;;;;;12.80;2.00;;;11.20;95.50;;;;;;5057455;28;20036;-47
2022/03/03 00:36:12;;;;;;;8.82;2.10;;;11.20;95.40;;;;;;5057222;28;20029;-45
2022/03/03 00:38:37;;;;;;;11.77;1.95;;;11.20;96.00;;;;;;5057263;28;20025;-45
2022/03/03 00:41:03;;;;;;;14.02;2.35;;;11.20;95.90;;;;;;5057617;28;20032;-45
2022/03/03 00:43:29;;;;;;;12.65;3.03;;;11.20;95.80;;;;;;5057414;28;20393;-46
2022/03/03 00:45:55;;;;;;;9.25;2.28;;;11.20;96.10;;;;;;5057759;28;20025;-45
2022/03/03 00:48:21;;;;;;;15.32;2.25;;;11.20;96.50;;;;;;5057526;28;20100;-45
2022/03/03 00:50:47;;;;;;;14.20;2.00;;;11.20;96.00;;;;;;5057135;28;20365;-46
2022/03/03 00:53:13;;;;;;;9.90;1.90;;;11.20;96.20;;;;;;5057260;28;20031;-45
2022/03/03 00:55:39;;;;;;;11.93;2.28;;;11.20;96.40;;;;;;5057274;28;20473;-45
2022/03/03 00:58:05;;;;;;;11.82;2.17;;;11.20;96.60;;;;;;5061447;28;20036;-46
2022/03/03 01:00:31;;;;;;;10.15;2.88;;;11.20;96.70;;;;;;5061415;28;20026;-46
2022/03/03 01:02:57;;;;;;;14.15;2.33;;;11.20;97.30;;;;;;5061123;28;20112;-45
2022/03/03 01:05:22;;;;;;;17.98;2.60;;;11.10;97.70;;;;;;5061501;28;20420;-45
2022/03/03 01:07:48;;;;;;;13.10;2.95;;;11.10;98.00;;;;;;5059761;28;20029;-46
2022/03/03 01:10:14;;;;;;;14.60;2.47;;;11.00;98.10;;;;;;5061231;28;20036;-46
2022/03/03 01:12:40;;;;;;;15.15;2.55;;;11.00;98.10;;;;;;5060762;28;20431;-46
2022/03/03 01:15:09;;;;;;;13.30;2.58;;;11.00;98.40;;;;;;5061093;28;20033;-47
2022/03/03 01:17:36;;;;;;;13.35;2.75;;;11.00;98.00;;;;;;5061153;28;20035;-46
2022/03/03 01:20:04;;;;;;;11.82;2.30;;;11.00;98.20;;;;;;5060811;28;20021;-48
2022/03/03 01:22:31;;;;;;;15.63;2.53;;;11.00;98.30;;;;;;5060555;28;20041;-45
2022/03/03 01:24:56;;;;;;;13.43;2.72;;;11.00;98.20;;;;;;5060978;28;20082;-45
2022/03/03 01:27:22;;;;;;;17.88;3.28;;;11.00;98.30;;;;;;5060779;28;20025;-46
2022/03/03 01:29:48;;;;;;;18.67;2.85;;;11.00;98.50;;;;;;5060874;28;20017;-44
2022/03/03 01:32:14;;;;;;;14.88;2.60;;;11.10;98.40;;;;;;5060577;28;20517;-46
2022/03/03 01:34:40;;;;;;;14.27;2.30;;;11.10;98.10;;;;;;5060577;28;20035;-45
2022/03/03 01:37:06;;;;;;;12.38;2.67;;;11.10;98.40;;;;;;5060507;28;20111;-45
2022/03/03 01:39:32;;;;;;;11.48;2.22;;;11.10;98.60;;;;;;5060504;28;20077;-45
2022/03/03 01:41:58;;;;;;;13.38;2.85;;;11.10;98.50;;;;;;5060672;28;20493;-45
2022/03/03 01:44:24;;;;;;;14.77;2.55;;;11.10;98.60;;;;;;5060421;28;20021;-44
2022/03/03 01:46:57;;;;;;;14.27;3.13;;;11.10;98.40;;;;;;5060475;28;20045;-46
2022/03/03 01:49:24;;;;;;;16.83;3.28;;;11.10;98.60;;;;;;5060306;28;20017;-47
2022/03/03 01:51:51;;;;;;;22.98;3.28;;;11.10;98.50;;;;;;5060712;28;20055;-46
2022/03/03 01:54:17;;;;;;;23.92;3.15;;;11.10;98.60;;;;;;5060142;28;20055;-45
2022/03/03 01:56:46;;;;;;;20.67;3.85;;;11.10;98.80;;;;;;5060496;28;20013;-44
2022/03/03 01:59:12;;;;;;;21.75;2.60;;;11.10;98.50;;;;;;5060065;28;20438;-45
2022/03/03 02:01:39;;;;;;;37.10;4.75;;;11.20;98.40;;;;;;5060057;28;20020;-45
2022/03/03 02:04:07;;;;;;;28.23;3.70;;;11.20;98.50;;;;;;5060044;28;20021;-45
2022/03/03 02:06:34;;;;;;;21.65;2.72;;;11.20;98.40;;;;;;5060229;28;20036;-45
2022/03/03 02:09:00;;;;;;;18.17;2.30;;;11.20;98.60;;;;;;5058507;28;20123;-45
2022/03/03 02:11:26;;;;;;;31.10;3.45;;;11.20;98.70;;;;;;5059927;28;20021;-45
2022/03/03 02:13:52;;;;;;;30.98;3.08;;;11.20;98.60;;;;;;5059898;28;20456;-44
2022/03/03 02:16:17;;;;;;;66.72;6.05;;;11.20;98.50;;;;;;5060376;28;20021;-44
2022/03/03 02:18:44;;;;;;;44.03;4.55;;;11.20;98.70;;;;;;5060159;28;20419;-44
2022/03/03 02:21:15;;;;;;;58.72;5.45;;;11.20;98.90;;;;;;5059692;28;20024;-46
2022/03/03 02:23:41;;;;;;;32.45;3.78;;;11.20;98.90;;;;;;5059266;28;20556;-44
2022/03/03 02:26:21;;;;;;;42.55;3.63;;;11.20;98.80;;;;;;5059775;28;20111;-45
2022/03/03 02:28:48;;;;;;;65.72;5.72;;;11.30;98.60;;;;;;5059789;28;20466;-44
2022/03/03 02:31:14;;;;;;;54.58;5.03;;;11.20;98.70;;;;;;5059915;28;20023;-45
2022/03/03 02:33:40;;;;;;;49.90;4.30;;;11.20;98.90;;;;;;5059437;28;20021;-45
2022/03/03 02:36:19;;;;;;;48.95;4.55;;;11.20;98.90;;;;;;5059618;28;20075;-46
2022/03/03 02:38:46;;;;;;;48.85;4.55;;;11.20;98.90;;;;;;5059347;28;20025;-45
2022/03/03 02:41:12;;;;;;;27.15;3.15;;;11.20;98.90;;;;;;5059286;28;20113;-45
2022/03/03 02:43:38;;;;;;;67.22;5.85;;;11.20;98.80;;;;;;5059425;28;20061;-47
2022/03/03 02:46:06;;;;;;;78.50;6.15;;;11.20;98.90;;;;;;5059381;28;20039;-45
2022/03/03 02:48:32;;;;;;;43.00;4.13;;;11.20;99.00;;;;;;5059215;28;20021;-44
2022/03/03 02:50:57;;;;;;;56.95;4.68;;;11.20;98.80;;;;;;5059356;28;20023;-45
2022/03/03 02:53:24;;;;;;;23.88;2.22;;;11.30;99.10;;;;;;5059128;28;20021;-45
2022/03/03 02:55:50;;;;;;;63.78;7.45;;;11.30;98.90;;;;;;5058837;28;20036;-44
2022/03/03 02:58:16;;;;;;;42.67;5.28;;;11.20;98.80;;;;;;5059204;28;20380;-47
2022/03/03 03:00:47;;;;;;;57.47;5.45;;;11.30;98.90;;;;;;5058921;28;20143;-45
2022/03/03 03:03:14;;;;;;;39.47;3.88;;;11.20;99.00;;;;;;5059273;28;20376;-45
2022/03/03 03:05:41;;;;;;;44.15;4.60;;;11.30;98.80;;;;;;5059012;28;20017;-45
2022/03/03 03:08:07;;;;;;;61.30;5.47;;;11.20;98.90;;;;;;5059335;28;20049;-45
2022/03/03 03:10:33;;;;;;;64.82;5.95;;;11.20;98.90;;;;;;5058798;28;20049;-45
2022/03/03 03:12:59;;;;;;;67.25;4.97;;;11.30;98.90;;;;;;5059150;28;20415;-45
2022/03/03 03:15:25;;;;;;;65.97;4.75;;;11.30;98.90;;;;;;5058766;28;20083;-45
2022/03/03 03:17:51;;;;;;;58.72;4.75;;;11.30;98.80;;;;;;5058584;28;20021;-44
2022/03/03 03:20:17;;;;;;;36.42;3.25;;;11.20;99.00;;;;;;5058526;28;20487;-45
2022/03/03 03:22:43;;;;;;;38.00;3.90;;;11.30;98.90;;;;;;5058248;28;20056;-45
2022/03/03 03:25:11;;;;;;;81.25;5.80;;;11.30;98.80;;;;;;5058426;28;20021;-46
2022/03/03 03:27:38;;;;;;;75.70;6.88;;;11.20;99.10;;;;;;5058429;28;20089;-46
2022/03/03 03:30:06;;;;;;;54.05;5.30;;;11.30;99.00;;;;;;5058603;28;20036;-45
2022/03/03 03:32:31;;;;;;;60.83;5.53;;;11.30;99.00;;;;;;5057037;28;20033;-50
2022/03/03 03:34:57;;;;;;;36.42;3.50;;;11.30;99.00;;;;;;5058289;28;20458;-45
2022/03/03 03:37:23;;;;;;;29.65;3.65;;;11.30;98.90;;;;;;5058673;28;20029;-45
2022/03/03 03:39:49;;;;;;;34.45;3.58;;;11.30;99.00;;;;;;5058173;28;20032;-45
2022/03/03 03:42:14;;;;;;;61.63;4.63;;;11.30;99.00;;;;;;5058302;28;20155;-45
2022/03/03 03:44:40;;;;;;;50.47;3.22;;;11.30;98.80;;;;;;5058097;28;20074;-47
2022/03/03 03:47:06;;;;;;;42.78;4.15;;;11.30;99.00;;;;;;5058150;28;20021;-46
2022/03/03 03:49:33;;;;;;;38.75;3.35;;;11.30;99.00;;;;;;5057985;28;20024;-46
2022/03/03 03:52:00;;;;;;;58.58;4.85;;;11.30;99.20;;;;;;5058082;28;20124;-45
2022/03/03 03:54:26;;;;;;;63.72;4.72;;;11.30;99.20;;;;;;5058118;28;20028;-45
2022/03/03 03:56:51;;;;;;;24.27;2.05;;;11.30;99.30;;;;;;5057877;28;20028;-45
2022/03/03 03:59:17;;;;;;;49.50;4.05;;;11.30;99.10;;;;;;5058042;28;20108;-45
2022/03/03 04:01:43;;;;;;;25.98;2.78;;;11.30;99.10;;;;;;5057970;28;20032;-45
2022/03/03 04:04:09;;;;;;;35.03;2.97;;;11.30;99.10;;;;;;5057722;28;20029;-45
2022/03/03 04:06:36;;;;;;;25.08;2.30;;;11.30;99.00;;;;;;5057834;28;20095;-45
2022/03/03 04:09:02;;;;;;;34.30;3.15;;;11.40;99.00;;;;;;5058517;28;20029;-45
2022/03/03 04:11:29;;;;;;;31.02;2.45;;;11.30;99.00;;;;;;5057876;28;20021;-45
2022/03/03 04:13:56;;;;;;;29.90;3.83;;;11.30;99.30;;;;;;5057844;28;20033;-45
2022/03/03 04:16:23;;;;;;;23.35;2.60;;;11.40;99.30;;;;;;5057882;28;20096;-47
2022/03/03 04:18:49;;;;;;;24.15;2.38;;;11.40;99.30;;;;;;5057516;28;20025;-46
2022/03/03 04:21:15;;;;;;;44.67;4.25;;;11.40;99.30;;;;;;5057605;28;20103;-46
2022/03/03 04:23:41;;;;;;;12.77;1.45;;;11.40;99.50;;;;;;5057225;28;20076;-45
2022/03/03 04:26:06;;;;;;;17.10;2.47;;;11.40;99.20;;;;;;5057477;28;20036;-46
2022/03/03 04:28:32;;;;;;;5.90;1.27;;;11.40;99.20;;;;;;5057394;28;20096;-46
2022/03/03 04:30:58;;;;;;;7.18;1.10;;;11.40;99.00;;;;;;5055266;28;20035;-46
2022/03/03 04:33:24;;;;;;;8.65;2.25;;;11.40;99.20;;;;;;5057529;28;20059;-48
2022/03/03 04:35:50;;;;;;;6.70;1.50;;;11.40;99.20;;;;;;5057646;28;20032;-46
2022/03/03 04:38:16;;;;;;;7.35;2.00;;;11.40;99.30;;;;;;5057307;28;20490;-46
2022/03/03 04:40:41;;;;;;;12.10;2.47;;;11.50;99.20;;;;;;5057461;28;20431;-45
2022/03/03 04:43:08;;;;;;;12.35;2.53;;;11.50;99.10;;;;;;5057429;28;20029;-45
2022/03/03 04:45:34;;;;;;;12.20;2.50;;;11.50;99.00;;;;;;5057220;28;20028;-44
2022/03/03 04:48:00;;;;;;;15.52;3.08;;;11.50;99.00;;;;;;5057183;28;20026;-44
2022/03/03 04:50:26;;;;;;;13.50;3.15;;;11.50;98.70;;;;;;5057099;28;20017;-45
2022/03/03 04:52:52;;;;;;;14.57;3.10;;;11.50;98.70;;;;;;5056918;28;20078;-46
2022/03/03 04:55:18;;;;;;;8.25;1.88;;;11.50;98.70;;;;;;5057067;28;20017;-48
2022/03/03 04:57:44;;;;;;;6.13;1.23;;;11.50;98.50;;;;;;5057326;28;20439;-47
2022/03/03 05:00:10;;;;;;;4.07;1.20;;;11.50;98.20;;;;;;5057056;28;20021;-49
2022/03/03 05:02:36;;;;;;;4.10;0.80;;;11.40;98.20;;;;;;5057183;28;20078;-48
2022/03/03 05:05:05;;;;;;;2.65;0.70;;;11.40;98.10;;;;;;5056993;28;20025;-46
2022/03/03 05:07:31;;;;;;;1.85;0.63;;;11.40;98.00;;;;;;5056818;28;20506;-45
2022/03/03 05:09:57;;;;;;;3.22;0.98;;;11.40;97.90;;;;;;5057228;28;20800;-48
2022/03/03 05:12:22;;;;;;;2.33;0.82;;;11.30;97.80;;;;;;5056992;28;20029;-46
2022/03/03 05:14:48;;;;;;;3.92;0.63;;;11.30;97.50;;;;;;5057161;28;20025;-46
2022/03/03 05:17:14;;;;;;;3.97;1.45;;;11.30;97.40;;;;;;5057166;28;20025;-45
2022/03/03 05:19:40;;;;;;;4.00;1.08;;;11.20;97.40;;;;;;5056386;28;20021;-45
2022/03/03 05:22:05;;;;;;;4.80;0.70;;;11.10;97.60;;;;;;5056636;28;20049;-45
2022/03/03 05:24:31;;;;;;;4.32;0.80;;;11.10;97.40;;;;;;5056982;28;20029;-46
2022/03/03 05:26:57;;;;;;;3.55;0.70;;;11.10;97.40;;;;;;5057017;28;20039;-45
2022/03/03 05:29:23;;;;;;;6.80;1.20;;;11.10;97.30;;;;;;5056833;28;20032;-45
2022/03/03 05:31:49;;;;;;;3.38;0.68;;;11.10;97.20;;;;;;5056728;28;20075;-45
2022/03/03 05:34:14;;;;;;;3.72;0.82;;;11.00;97.20;;;;;;5056694;28;20014;-45
2022/03/03 05:36:41;;;;;;;5.10;1.10;;;11.00;96.70;;;;;;5056620;28;20051;-46
2022/03/03 05:39:07;;;;;;;1.40;0.90;;;10.90;97.00;;;;;;5056890;28;20053;-48
2022/03/03 05:41:34;;;;;;;4.03;0.80;;;10.90;96.90;;;;;;5056247;28;20031;-47
2022/03/03 05:44:00;;;;;;;8.00;2.38;;;10.90;97.00;;;;;;5060233;28;20068;-52
2022/03/03 05:46:26;;;;;;;7.72;1.42;;;10.80;97.10;;;;;;5060666;28;20500;-46
2022/03/03 05:48:52;;;;;;;7.03;1.15;;;10.80;97.00;;;;;;5060727;28;20377;-48
2022/03/03 05:51:19;;;;;;;5.03;1.23;;;10.80;97.10;;;;;;5060237;28;20025;-46
2022/03/03 05:53:46;;;;;;;7.15;1.08;;;10.80;97.10;;;;;;5060218;28;20017;-46
2022/03/03 05:56:15;;;;;;;5.65;1.20;;;10.80;96.90;;;;;;5059279;28;20044;-49
2022/03/03 05:58:44;;;;;;;6.43;1.55;;;10.80;96.90;;;;;;5059838;28;20029;-45
2022/03/03 06:01:12;;;;;;;6.57;1.30;;;10.70;96.70;;;;;;5059623;28;20085;-52
2022/03/03 06:03:39;;;;;;;5.60;1.65;;;10.60;96.70;;;;;;5059787;28;20051;-46
2022/03/03 06:06:21;;;;;;;7.50;1.55;;;10.70;96.70;;;;;;5060110;28;20061;-44
2022/03/03 06:09:14;;;;;;;4.72;1.27;;;10.60;96.80;;;;;;5059851;28;20096;-45
2022/03/03 06:12:01;;;;;;;6.97;1.48;;;10.60;96.50;;;;;;5059983;28;20040;-45
2022/03/03 06:14:38;;;;;;;9.00;2.58;;;10.50;96.60;;;;;;5059704;28;20424;-45
2022/03/03 06:17:04;;;;;;;8.77;1.80;;;10.50;96.60;;;;;;5059642;28;20057;-45
2022/03/03 06:19:33;;;;;;;9.00;1.98;;;10.50;96.50;;;;;;5059706;28;20028;-45
2022/03/03 06:21:59;;;;;;;10.20;1.95;;;10.50;96.40;;;;;;5059271;28;20044;-46
2022/03/03 06:24:25;;;;;;;12.27;2.47;;;10.50;96.40;;;;;;5059613;28;20124;-46
2022/03/03 06:26:50;;;;;;;11.23;1.88;;;10.40;96.40;;;;;;5059435;28;20029;-45
2022/03/03 06:29:17;;;;;;;8.55;2.20;;;10.40;96.50;;;;;;5059684;28;20013;-45
2022/03/03 06:31:43;;;;;;;10.18;2.03;;;10.40;96.60;;;;;;5059257;28;20083;-45
2022/03/03 06:34:08;;;;;;;12.77;2.92;;;10.40;96.40;;;;;;5059538;28;20033;-45
2022/03/03 06:36:34;;;;;;;13.38;2.65;;;10.40;96.40;;;;;;5059220;28;20121;-45
2022/03/03 06:39:00;;;;;;;8.40;2.03;;;10.40;96.10;;;;;;5059300;28;20032;-45
2022/03/03 06:41:26;;;;;;;11.38;2.25;;;10.30;96.10;;;;;;5059446;28;20478;-47
2022/03/03 06:43:53;;;;;;;14.07;2.30;;;10.30;96.20;;;;;;5059142;28;20025;-46
2022/03/03 06:46:19;;;;;;;12.25;2.60;;;10.20;96.10;;;;;;5059026;28;20029;-45
2022/03/03 06:48:47;;;;;;;12.43;2.75;;;10.20;95.90;;;;;;5059250;28;20538;-47
2022/03/03 06:51:20;;;;;;;10.25;2.33;;;10.20;96.20;;;;;;5059034;28;20067;-45
2022/03/03 06:53:48;;;;;;;8.88;2.08;;;10.20;96.10;;;;;;5058123;28;20093;-47
2022/03/03 06:56:14;;;;;;;11.18;2.10;;;10.20;96.30;;;;;;5059145;28;20060;-48
2022/03/03 06:58:40;;;;;;;9.60;2.70;;;10.20;96.20;;;;;;5058829;28;20036;-47
2022/03/03 07:01:12;;;;;;;14.57;2.40;;;10.20;96.10;;;;;;5058799;28;20028;-45
2022/03/03 07:03:41;;;;;;;6.10;1.80;;;10.20;96.10;;;;;;5058717;28;20025;-45
2022/03/03 07:06:06;;;;;;;11.80;2.33;;;10.10;96.20;;;;;;5058740;28;20017;-45
2022/03/03 07:08:33;;;;;;;13.90;2.80;;;10.20;96.20;;;;;;5058487;28;20070;-45
2022/03/03 07:10:59;;;;;;;10.05;2.50;;;10.10;96.00;;;;;;5058608;28;20025;-45
2022/03/03 07:13:25;;;;;;;12.82;2.60;;;10.10;96.20;;;;;;5058669;28;20017;-44
2022/03/03 07:15:54;;;;;;;9.43;1.98;;;10.10;96.00;;;;;;5058370;28;20029;-45
2022/03/03 07:18:30;;;;;;;10.40;1.80;;;10.00;96.00;;;;;;5058442;28;20017;-46
2022/03/03 07:21:16;;;;;;;11.65;2.03;;;10.10;96.10;;;;;;5058396;28;20085;-45
2022/03/03 07:23:52;;;;;;;10.13;2.30;;;10.00;96.00;;;;;;5057943;28;20063;-46
2022/03/03 07:26:19;;;;;;;10.40;2.08;;;10.10;96.20;;;;;;5058391;28;20025;-45
2022/03/03 07:28:50;;;;;;;13.48;2.58;;;10.00;96.20;;;;;;5056974;28;20031;-44
2022/03/03 07:31:18;;;;;;;9.65;2.00;;;10.00;96.20;;;;;;5058077;28;20047;-46
2022/03/03 07:33:48;;;;;;;11.98;3.13;;;10.00;96.20;;;;;;5058381;28;20025;-44
2022/03/03 07:36:19;;;;;;;12.13;3.08;;;10.00;96.10;;;;;;5057930;28;20029;-46
2022/03/03 07:39:13;;;;;;;13.10;2.50;;;10.10;96.00;;;;;;5057873;28;20078;-45
2022/03/03 07:41:42;;;;;;;10.85;1.77;;;10.00;96.00;;;;;;5057949;28;20107;-45
2022/03/03 07:44:08;;;;;;;8.55;2.53;;;10.00;96.10;;;;;;5058166;28;20029;-44
2022/03/03 07:46:33;;;;;;;18.30;3.13;;;10.10;96.00;;;;;;5058208;28;20025;-45
2022/03/03 07:49:00;;;;;;;13.57;2.92;;;10.10;96.20;;;;;;5057938;28;20049;-44
2022/03/03 07:51:27;;;;;;;10.95;2.13;;;10.10;96.20;;;;;;5057868;28;20025;-44
2022/03/03 07:53:54;;;;;;;9.50;2.00;;;10.10;96.00;;;;;;5057772;28;20025;-45
2022/03/03 07:56:41;;;;;;;7.05;2.22;;;10.10;96.20;;;;;;5057878;28;20083;-46
2022/03/03 07:59:12;;;;;;;13.20;2.47;;;10.10;96.10;;;;;;5057510;28;20036;-45
2022/03/03 08:01:39;;;;;;;9.23;2.42;;;10.20;96.10;;;;;;5057686;28;20025;-45
2022/03/03 08:04:05;;;;;;;11.27;2.00;;;10.20;96.10;;;;;;5057735;28;20095;-47
2022/03/03 08:06:32;;;;;;;10.73;2.28;;;10.20;96.30;;;;;;5057040;28;20064;-46
2022/03/03 08:09:01;;;;;;;14.60;2.55;;;10.20;96.40;;;;;;5057537;28;20028;-46
2022/03/03 08:11:28;;;;;;;14.38;2.95;;;10.30;96.40;;;;;;5057506;28;20028;-44
2022/03/03 08:13:56;;;;;;;13.38;1.98;;;10.30;96.40;;;;;;5057711;28;20017;-45
2022/03/03 08:16:22;;;;;;;13.85;2.80;;;10.40;96.50;;;;;;5057420;28;20524;-46
2022/03/03 08:18:48;;;;;;;11.73;2.38;;;10.50;96.50;;;;;;5057404;28;20021;-47
2022/03/03 08:21:15;;;;;;;9.70;2.50;;;10.50;96.50;;;;;;5057348;28;20028;-45
2022/03/03 08:23:43;;;;;;;11.88;2.42;;;10.60;96.30;;;;;;5056880;28;20124;-45
2022/03/03 08:26:12;;;;;;;14.38;2.70;;;10.60;96.20;;;;;;5057478;28;20025;-46
2022/03/03 08:28:39;;;;;;;11.70;2.97;;;10.70;96.30;;;;;;5057378;28;20074;-48
2022/03/03 08:31:07;;;;;;;12.43;3.13;;;10.80;96.30;;;;;;5057277;28;20024;-49
2022/03/03 08:33:41;;;;;;;11.88;2.38;;;10.80;96.10;;;;;;5057324;28;20070;-45
2022/03/03 08:36:26;;;;;;;16.55;4.40;;;10.80;96.30;;;;;;5057250;28;20029;-45
2022/03/03 08:38:56;;;;;;;19.55;3.80;;;10.90;96.00;;;;;;5056994;28;20544;-49
2022/03/03 08:41:23;;;;;;;13.30;2.55;;;10.90;95.90;;;;;;5057063;28;20028;-48
2022/03/03 08:43:52;;;;;;;11.00;2.60;;;11.00;95.90;;;;;;5057015;28;20075;-47
2022/03/03 08:46:32;;;;;;;12.63;2.35;;;11.00;95.70;;;;;;5057119;28;20025;-46
2022/03/03 08:49:01;;;;;;;12.60;3.13;;;11.00;95.90;;;;;;5057078;28;20021;-46
2022/03/03 08:51:27;;;;;;;10.15;2.72;;;11.00;96.20;;;;;;5057288;28;20025;-46
2022/03/03 08:53:53;;;;;;;10.70;2.42;;;11.10;96.20;;;;;;5057111;28;20047;-47
2022/03/03 08:56:19;;;;;;;10.32;2.33;;;11.20;96.20;;;;;;5056998;28;20408;-45
2022/03/03 08:58:45;;;;;;;12.02;2.85;;;11.30;96.30;;;;;;5057202;28;20029;-49
2022/03/03 09:01:11;;;;;;;12.65;2.75;;;11.30;96.10;;;;;;5056958;28;20025;-44
2022/03/03 09:03:39;;;;;;;14.23;2.95;;;11.40;96.10;;;;;;5056838;28;20029;-45
2022/03/03 09:06:05;;;;;;;13.60;2.67;;;11.40;95.90;;;;;;5056879;28;20029;-45
2022/03/03 09:08:31;;;;;;;17.70;3.03;;;11.40;95.90;;;;;;5057299;28;20021;-46
2022/03/03 09:10:57;;;;;;;13.45;2.72;;;11.40;95.70;;;;;;5057261;28;20598;-44
2022/03/03 09:13:23;;;;;;;10.80;2.75;;;11.40;95.60;;;;;;5057121;28;20082;-45
2022/03/03 09:15:50;;;;;;;15.13;3.65;;;11.40;95.70;;;;;;5056802;28;20040;-45
2022/03/03 09:18:16;;;;;;;18.02;2.95;;;11.40;95.60;;;;;;5059640;28;20040;-44
2022/03/03 09:20:41;;;;;;;13.30;3.35;;;11.40;95.40;;;;;;5060971;28;20037;-46
2022/03/03 09:23:08;;;;;;;16.10;4.05;;;11.40;95.70;;;;;;5060983;28;20080;-45
2022/03/03 09:25:36;;;;;;;20.55;3.45;;;11.40;95.50;;;;;;5060902;28;20079;-46
2022/03/03 09:28:04;;;;;;;11.05;2.47;;;11.40;95.80;;;;;;5061029;28;20036;-47
2022/03/03 09:30:30;;;;;;;14.02;2.72;;;11.40;95.80;;;;;;5060904;28;20105;-44
2022/03/03 09:32:56;;;;;;;12.05;3.03;;;11.40;95.90;;;;;;5060310;28;20548;-45
2022/03/03 09:35:22;;;;;;;12.57;2.90;;;11.50;96.00;;;;;;5060323;28;20457;-44
2022/03/03 09:37:48;;;;;;;17.50;3.03;;;11.50;95.90;;;;;;5060454;28;20033;-45
2022/03/03 09:40:14;;;;;;;15.20;2.75;;;11.50;95.90;;;;;;5060376;28;20036;-46
2022/03/03 09:42:40;;;;;;;16.75;4.35;;;11.60;96.00;;;;;;5060352;28;20396;-46
2022/03/03 09:45:09;;;;;;;17.10;2.80;;;11.60;96.00;;;;;;5060629;28;20484;-45
2022/03/03 09:47:36;;;;;;;12.48;3.45;;;11.60;95.90;;;;;;5060411;28;20017;-45
2022/03/03 09:50:04;;;;;;;19.70;3.50;;;11.60;95.40;;;;;;5059823;28;20029;-47
2022/03/03 09:52:30;;;;;;;15.95;3.45;;;11.60;95.60;;;;;;5060229;28;20032;-46
2022/03/03 09:54:57;;;;;;;15.25;3.88;;;11.70;95.50;;;;;;5060226;28;20047;-44
2022/03/03 09:57:24;;;;;;;14.07;3.30;;;11.70;95.30;;;;;;5060182;28;20477;-45
2022/03/03 09:59:52;;;;;;;14.88;3.38;;;11.70;95.50;;;;;;5060312;28;20093;-45
2022/03/03 10:02:18;;;;;;;16.75;3.85;;;11.70;95.50;;;;;;5059672;28;20036;-46
2022/03/03 10:04:44;;;;;;;14.68;4.00;;;11.80;95.30;;;;;;5059905;28;20017;-47
2022/03/03 10:07:11;;;;;;;16.95;3.83;;;11.70;94.80;;;;;;5059984;28;20083;-44
2022/03/03 10:12:26;;;;;;;18.85;3.88;;;11.70;94.30;;;;;;5060220;28;20051;-45
2022/03/03 10:14:57;;;;;;;17.45;3.67;;;11.70;95.20;;;;;;5059765;28;20545;-45
2022/03/03 10:17:34;;;;;;;16.67;4.30;;;11.80;95.10;;;;;;5059597;28;20424;-44
2022/03/03 10:20:02;;;;;;;19.85;4.72;;;11.70;95.10;;;;;;5059855;28;20047;-46
2022/03/03 10:22:43;;;;;;;17.90;4.13;;;11.70;95.00;;;;;;5059355;28;20052;-43
2022/03/03 10:25:11;;;;;;;18.92;4.70;;;11.80;95.30;;;;;;5059607;28;20393;-44
2022/03/03 10:27:37;;;;;;;16.65;3.78;;;11.80;94.50;;;;;;5059559;28;20434;-47
2022/03/03 10:30:05;;;;;;;22.58;4.03;;;11.80;95.40;;;;;;5058470;28;20067;-47
2022/03/03 10:32:31;;;;;;;18.00;4.32;;;11.90;95.40;;;;;;5059416;28;20029;-48
2022/03/03 10:35:16;;;;;;;20.98;4.78;;;11.90;95.40;;;;;;5059633;28;20538;-45
2022/03/03 10:37:44;;;;;;;18.45;5.10;;;11.90;95.60;;;;;;5059286;28;20431;-49
2022/03/03 10:40:13;;;;;;;19.35;3.85;;;12.00;95.50;;;;;;5059505;28;20035;-46
2022/03/03 10:42:43;;;;;;;19.50;4.25;;;12.00;95.40;;;;;;5059443;28;20028;-46
2022/03/03 10:45:16;;;;;;;20.60;4.35;;;12.00;95.40;;;;;;5059358;28;20032;-46
2022/03/03 10:47:57;;;;;;;18.92;4.90;;;12.00;95.50;;;;;;5059275;28;20025;-44
2022/03/03 10:50:23;;;;;;;21.23;4.90;;;12.00;95.70;;;;;;5059191;28;20132;-46
2022/03/03 10:52:49;;;;;;;21.42;4.75;;;12.10;95.70;;;;;;5059070;28;20032;-45
2022/03/03 10:55:17;;;;;;;24.88;4.95;;;12.10;95.60;;;;;;5059409;28;20025;-45
2022/03/03 10:57:58;;;;;;;23.25;5.88;;;12.10;95.00;;;;;;5058979;28;20078;-45
2022/03/03 11:00:25;;;;;;;23.92;5.63;;;12.00;94.60;;;;;;5058794;28;20033;-48
2022/03/03 11:02:58;;;;;;;27.95;6.22;;;12.00;95.00;;;;;;5058699;28;20021;-44
2022/03/03 11:05:26;;;;;;;24.08;5.43;;;12.00;95.10;;;;;;5058760;28;20029;-48
2022/03/03 11:07:58;;;;;;;24.98;6.18;;;11.90;94.90;;;;;;5058612;28;20043;-47
2022/03/03 11:10:27;;;;;;;24.98;8.45;;;11.90;94.60;;;;;;5058834;28;20095;-48
2022/03/03 11:12:53;;;;;;;24.92;5.88;;;11.90;95.40;;;;;;5058346;28;20052;-46
2022/03/03 11:15:22;;;;;;;19.63;6.03;;;11.90;95.20;;;;;;5058566;28;20457;-47
2022/03/03 11:17:51;;;;;;;29.45;16.30;;;11.90;95.50;;;;;;5058827;28;20027;-46
2022/03/03 11:20:18;;;;;;;22.13;6.97;;;11.90;95.20;;;;;;5058709;28;20033;-46
2022/03/03 11:22:46;;;;;;;25.20;7.95;;;11.90;95.10;;;;;;5058128;28;20475;-47
2022/03/03 11:25:17;;;;;;;23.88;8.55;;;11.90;95.20;;;;;;5058444;28;20036;-45
2022/03/03 11:27:44;;;;;;;25.50;8.75;;;11.80;94.80;;;;;;5058274;28;20031;-45
2022/03/03 11:30:14;;;;;;;30.50;9.38;;;11.80;95.30;;;;;;5058638;28;20051;-49
2022/03/03 11:32:40;;;;;;;22.33;8.90;;;11.90;95.20;;;;;;5058803;28;20056;-45
2022/03/03 11:35:08;;;;;;;24.38;9.30;;;11.90;95.50;;;;;;5058354;28;20036;-47
2022/03/03 11:37:45;;;;;;;18.75;7.45;;;11.90;95.50;;;;;;5058507;28;20033;-48
2022/03/03 11:40:20;;;;;;;24.60;7.68;;;11.90;95.30;;;;;;5058271;28;20033;-45
2022/03/03 11:42:55;;;;;;;28.92;8.52;;;11.90;95.60;;;;;;5058182;28;20507;-47
2022/03/03 11:45:34;;;;;;;22.55;5.65;;;12.00;95.50;;;;;;5057981;28;20480;-45
2022/03/03 11:48:14;;;;;;;31.65;8.20;;;11.90;95.40;;;;;;5057987;28;20029;-47
2022/03/03 11:50:41;;;;;;;24.95;9.23;;;12.00;95.50;;;;;;5057987;28;20032;-45
2022/03/03 11:53:09;;;;;;;23.77;6.90;;;12.00;95.40;;;;;;5057980;28;20055;-46
2022/03/03 11:55:47;;;;;;;27.80;7.95;;;12.00;95.20;;;;;;5058101;28;20025;-45
2022/03/03 11:58:31;;;;;;;18.52;6.68;;;12.00;95.40;;;;;;5058163;28;20136;-46
2022/03/03 12:01:05;;;;;;;30.38;14.88;;;12.00;94.80;;;;;;5058306;28;20572;-49
2022/03/03 12:03:32;;;;;;;23.02;6.63;;;12.00;94.70;;;;;;5057713;28;20037;-48
2022/03/03 12:06:05;;;;;;;25.98;10.90;;;12.00;94.90;;;;;;5057834;28;20056;-45
2022/03/03 12:08:33;;;;;;;29.30;11.25;;;12.00;95.00;;;;;;5057662;28;20021;-45
2022/03/03 12:11:19;;;;;;;26.27;6.32;;;12.00;95.10;;;;;;5057872;28;20025;-50
2022/03/03 12:13:50;;;;;;;19.85;5.60;;;12.00;95.00;;;;;;5057559;28;20492;-47
2022/03/03 12:16:29;;;;;;;24.48;8.15;;;12.00;95.10;;;;;;5056355;28;20025;-45
2022/03/03 12:18:55;;;;;;;23.30;6.22;;;12.00;95.30;;;;;;5057488;28;20542;-46
2022/03/03 12:21:26;;;;;;;25.08;5.80;;;12.10;94.90;;;;;;5057624;28;20108;-46
2022/03/03 12:24:14;;;;;;;19.33;6.10;;;12.00;95.10;;;;;;5057440;28;20029;-50
2022/03/03 12:26:55;;;;;;;26.40;5.32;;;12.10;95.00;;;;;;5057088;28;20056;-46
2022/03/03 12:29:31;;;;;;;21.73;7.50;;;12.00;95.10;;;;;;5057258;28;20024;-48
2022/03/03 12:31:57;;;;;;;19.08;5.35;;;12.10;95.00;;;;;;5057507;28;20017;-47
2022/03/03 12:34:23;;;;;;;20.98;5.25;;;12.10;95.00;;;;;;5057396;28;20028;-45
2022/03/03 12:36:54;;;;;;;19.90;4.85;;;12.10;95.20;;;;;;5057494;28;20531;-48
2022/03/03 12:39:20;;;;;;;17.15;5.68;;;12.10;95.20;;;;;;5057496;28;20032;-46
2022/03/03 12:41:46;;;;;;;24.80;5.47;;;12.20;95.40;;;;;;5056966;28;20025;-48
2022/03/03 12:44:15;;;;;;;21.50;4.22;;;12.20;95.40;;;;;;5057583;28;20028;-46
2022/03/03 12:46:43;;;;;;;26.20;5.90;;;12.20;94.80;;;;;;5057105;28;20473;-45